createdAt,value
2019-05-21T00:00:54.484Z,19.90
2019-05-21T00:03:42.420Z,19.47
2019-05-21T00:06:12.747Z,20.10
2019-05-21T00:09:00.540Z,19.77
2019-05-21T00:11:28.970Z,19.77
2019-05-21T00:13:57.876Z,18.43
2019-05-21T00:16:49.611Z,18.37
2019-05-21T00:19:20.392Z,18.17
2019-05-21T00:21:51.635Z,20.67
2019-05-21T00:24:22.518Z,19.83
2019-05-21T00:27:13.823Z,19.40
2019-05-21T00:30:20.069Z,17.63
2019-05-21T00:33:24.758Z,17.80
2019-05-21T00:36:30.252Z,20.13
2019-05-21T00:39:35.169Z,18.80
2019-05-21T00:42:05.428Z,21.23
2019-05-21T00:44:40.394Z,20.43
2019-05-21T00:47:10.429Z,19.80
2019-05-21T00:49:58.196Z,21.17
2019-05-21T00:52:26.622Z,22.57
2019-05-21T00:55:15.235Z,19.37
2019-05-21T00:57:44.206Z,21.73
2019-05-21T01:00:13.854Z,19.50
2019-05-21T01:03:01.826Z,18.73
2019-05-21T01:05:30.296Z,19.50
2019-05-21T01:07:58.747Z,19.40
2019-05-21T01:13:27.911Z,19.17
2019-05-21T01:15:57.223Z,18.60
2019-05-21T01:18:27.123Z,19.03
2019-05-21T01:21:16.324Z,18.47
2019-05-21T01:24:04.734Z,20.00
2019-05-21T01:26:54.199Z,18.57
2019-05-21T01:29:23.823Z,18.60
2019-05-21T01:31:52.938Z,20.47
2019-05-21T01:34:23.224Z,18.70
2019-05-21T01:36:52.608Z,17.97
2019-05-21T01:39:22.272Z,18.43
2019-05-21T01:41:52.370Z,18.17
2019-05-21T01:44:21.915Z,16.33
2019-05-21T01:46:51.664Z,17.13
2019-05-21T01:49:21.772Z,18.53
2019-05-21T01:51:51.306Z,20.07
2019-05-21T01:54:20.681Z,21.80
2019-05-21T01:56:58.334Z,19.30
2019-05-21T01:59:26.833Z,17.13
2019-05-21T02:01:55.383Z,19.37
2019-05-21T02:04:24.836Z,20.13
2019-05-21T02:07:12.620Z,18.70
2019-05-21T02:09:57.289Z,18.77
2019-05-21T02:12:26.659Z,19.30
2019-05-21T02:14:55.356Z,19.07
2019-05-21T02:17:25.695Z,21.80
2019-05-21T02:19:54.692Z,18.73
2019-05-21T02:22:23.673Z,19.57
2019-05-21T02:24:53.018Z,21.10
2019-05-21T02:27:41.524Z,17.83
2019-05-21T02:30:11.313Z,17.80
2019-05-21T02:32:40.316Z,17.67
2019-05-21T02:38:24.218Z,17.33
2019-05-21T02:40:52.773Z,16.97
2019-05-21T02:43:41.118Z,15.97
2019-05-21T02:46:28.965Z,15.87
2019-05-21T02:48:57.388Z,16.90
2019-05-21T02:51:26.577Z,18.40
2019-05-21T02:53:55.143Z,16.27
2019-05-21T02:56:25.419Z,16.63
2019-05-21T02:58:54.372Z,15.83
2019-05-21T03:01:24.712Z,17.23
2019-05-21T03:03:53.584Z,17.33
2019-05-21T03:06:23.280Z,18.77
2019-05-21T03:08:52.551Z,17.03
2019-05-21T03:11:21.545Z,17.33
2019-05-21T03:14:09.419Z,18.77
2019-05-21T03:16:38.297Z,16.97
2019-05-21T03:19:07.059Z,18.13
2019-05-21T03:21:35.616Z,19.20
2019-05-21T03:24:04.042Z,17.90
2019-05-21T03:26:32.624Z,18.03
2019-05-21T03:29:23.132Z,16.27
2019-05-21T03:31:54.026Z,16.33
2019-05-21T03:34:23.222Z,16.23
2019-05-21T03:36:52.985Z,17.07
2019-05-21T03:39:26.535Z,17.33
2019-05-21T03:41:55.190Z,20.30
2019-05-21T03:44:24.514Z,19.23
2019-05-21T03:46:53.443Z,19.10
2019-05-21T03:49:23.262Z,17.23
2019-05-21T03:51:53.253Z,19.97
2019-05-21T03:54:24.133Z,20.90
2019-05-21T03:56:54.370Z,19.93
2019-05-21T03:59:23.617Z,21.23
2019-05-21T04:01:54.463Z,20.00
2019-05-21T04:04:23.647Z,20.07
2019-05-21T04:06:53.457Z,22.60
2019-05-21T04:09:24.044Z,21.17
2019-05-21T04:12:11.861Z,22.57
2019-05-21T04:14:42.110Z,23.47
2019-05-21T04:17:21.856Z,27.23
2019-05-21T04:19:53.106Z,28.33
2019-05-21T04:22:23.125Z,29.67
2019-05-21T04:24:56.197Z,26.80
2019-05-21T04:27:25.979Z,29.63
2019-05-21T04:29:55.241Z,30.10
2019-05-21T04:32:24.571Z,27.53
2019-05-21T04:34:55.147Z,31.50
2019-05-21T04:37:24.384Z,34.70
2019-05-21T04:39:54.105Z,32.27
2019-05-21T04:42:23.341Z,39.60
2019-05-21T04:44:55.070Z,37.13
2019-05-21T04:47:44.681Z,32.93
2019-05-21T04:50:14.278Z,31.47
2019-05-21T04:52:43.096Z,34.87
2019-05-21T04:55:12.103Z,33.60
2019-05-21T04:57:40.988Z,28.63
2019-05-21T05:00:11.744Z,35.80
2019-05-21T05:02:41.458Z,36.27
2019-05-21T05:05:11.339Z,35.60
2019-05-21T05:07:52.142Z,41.27
2019-05-21T05:10:20.539Z,31.87
2019-05-21T05:12:53.809Z,34.27
2019-05-21T05:15:22.653Z,30.23
2019-05-21T05:17:53.420Z,34.03
2019-05-21T05:20:35.121Z,34.57
2019-05-21T05:23:03.548Z,34.50
2019-05-21T05:25:32.019Z,31.87
2019-05-21T05:28:00.506Z,34.67
2019-05-21T05:30:28.961Z,34.30
2019-05-21T05:32:57.395Z,36.23
2019-05-21T05:35:26.047Z,29.80
2019-05-21T05:38:18.154Z,30.87
2019-05-21T05:40:48.323Z,29.10
2019-05-21T05:43:21.404Z,31.77
2019-05-21T05:45:51.178Z,32.37
2019-05-21T05:48:22.643Z,30.80
2019-05-21T05:51:00.860Z,31.57
2019-05-21T05:53:33.871Z,30.60
2019-05-21T05:56:03.980Z,28.73
2019-05-21T05:58:53.501Z,36.87
2019-05-21T06:01:22.669Z,31.60
2019-05-21T06:03:51.907Z,33.40
2019-05-21T06:06:21.052Z,28.90
2019-05-21T06:08:54.987Z,30.50
2019-05-21T06:11:46.582Z,30.07
2019-05-21T06:14:17.538Z,31.83
2019-05-21T06:17:05.658Z,30.10
2019-05-21T06:19:34.404Z,28.30
2019-05-21T06:22:02.830Z,28.67
2019-05-21T06:24:52.758Z,25.53
2019-05-21T06:27:21.680Z,27.63
2019-05-21T06:29:55.108Z,30.00
2019-05-21T06:32:28.779Z,27.93
2019-05-21T06:34:57.277Z,28.33
2019-05-21T06:37:29.116Z,26.63
2019-05-21T06:39:57.554Z,29.33
2019-05-21T06:42:26.004Z,22.60
2019-05-21T06:45:14.663Z,23.47
2019-05-21T06:47:43.400Z,23.23
2019-05-21T06:50:12.953Z,23.30
2019-05-21T06:52:46.843Z,23.17
2019-05-21T06:55:18.217Z,21.57
2019-05-21T06:58:08.442Z,23.67
2019-05-21T07:00:36.879Z,21.60
2019-05-21T07:03:05.383Z,26.37
2019-05-21T07:05:33.847Z,24.50
2019-05-21T07:08:02.269Z,24.20
2019-05-21T07:10:30.792Z,21.17
2019-05-21T07:12:59.259Z,23.57
2019-05-21T07:15:28.799Z,23.27
2019-05-21T07:17:57.365Z,22.27
2019-05-21T07:20:26.431Z,20.87
2019-05-21T07:22:55.465Z,24.93
2019-05-21T07:25:25.261Z,24.07
2019-05-21T07:27:55.094Z,20.73
2019-05-21T07:30:25.045Z,21.33
2019-05-21T07:32:54.865Z,19.63
2019-05-21T07:35:24.483Z,19.60
2019-05-21T07:37:53.697Z,21.87
2019-05-21T07:40:24.596Z,22.93
2019-05-21T07:42:54.166Z,19.87
2019-05-21T07:45:24.153Z,20.50
2019-05-21T07:47:54.001Z,23.13
2019-05-21T07:50:26.180Z,18.93
2019-05-21T07:52:55.374Z,15.27
2019-05-21T07:55:25.371Z,23.83
2019-05-21T07:57:55.679Z,18.67
2019-05-21T08:00:26.000Z,21.17
2019-05-21T08:02:55.168Z,21.50
2019-05-21T08:05:24.054Z,21.27
2019-05-21T08:07:55.024Z,20.43
2019-05-21T08:10:23.976Z,23.00
2019-05-21T08:12:53.139Z,21.13
2019-05-21T08:15:24.142Z,22.37
2019-05-21T08:17:54.918Z,27.40
2019-05-21T08:20:25.251Z,23.77
2019-05-21T08:22:54.428Z,24.23
2019-05-21T08:25:23.079Z,23.93
2019-05-21T08:27:52.629Z,25.63
2019-05-21T08:30:22.563Z,23.00
2019-05-21T08:32:52.380Z,28.47
2019-05-21T08:35:22.102Z,27.13
2019-05-21T08:37:52.464Z,27.70
2019-05-21T08:40:25.175Z,27.33
2019-05-21T08:42:54.515Z,32.00
2019-05-21T08:45:23.655Z,30.13
2019-05-21T08:47:55.740Z,30.90
2019-05-21T08:50:26.462Z,33.83
2019-05-21T08:53:03.023Z,27.50
2019-05-21T08:55:31.687Z,30.33
2019-05-21T08:58:06.885Z,27.40
2019-05-21T09:00:31.012Z,27.53
2019-05-21T09:02:59.608Z,28.33
2019-05-21T09:05:28.209Z,29.43
2019-05-21T09:07:57.086Z,28.67
2019-05-21T09:10:27.193Z,22.67
2019-05-21T09:12:56.194Z,21.40
2019-05-21T09:15:25.472Z,25.73
2019-05-21T09:17:54.912Z,26.53
2019-05-21T09:20:24.292Z,24.47
2019-05-21T09:22:54.262Z,25.73
2019-05-21T09:25:24.775Z,21.53
2019-05-21T09:27:55.799Z,21.27
2019-05-21T09:30:24.796Z,25.13
2019-05-21T09:32:55.684Z,27.97
2019-05-21T09:35:25.375Z,23.47
2019-05-21T09:37:54.327Z,23.10
2019-05-21T09:40:24.724Z,24.37
2019-05-21T09:42:54.753Z,25.20
2019-05-21T09:45:24.076Z,22.27
2019-05-21T09:47:53.916Z,27.67
2019-05-21T09:50:23.998Z,25.90
2019-05-21T09:52:54.124Z,21.53
2019-05-21T09:55:24.451Z,20.37
2019-05-21T09:58:14.128Z,20.03
2019-05-21T10:00:51.218Z,21.50
2019-05-21T10:03:25.740Z,21.27
2019-05-21T10:06:18.717Z,25.80
2019-05-21T10:08:49.446Z,18.43
2019-05-21T10:11:22.196Z,19.50
2019-05-21T10:13:54.546Z,19.23
2019-05-21T10:16:42.381Z,19.77
2019-05-21T10:22:04.411Z,21.87
2019-05-21T10:24:33.100Z,21.07
2019-05-21T10:27:03.540Z,21.00
2019-05-21T10:29:31.724Z,23.83
2019-05-21T10:32:02.836Z,24.80
2019-05-21T10:34:31.281Z,25.63
2019-05-21T10:36:59.798Z,22.10
2019-05-21T10:39:47.930Z,23.07
2019-05-21T10:42:22.388Z,21.67
2019-05-21T10:44:53.089Z,24.47
2019-05-21T10:47:22.638Z,23.70
2019-05-21T10:49:52.025Z,22.70
2019-05-21T10:52:23.693Z,23.47
2019-05-21T10:54:54.534Z,21.57
2019-05-21T10:57:23.371Z,20.03
2019-05-21T10:59:53.663Z,24.77
2019-05-21T11:02:26.584Z,21.60
2019-05-21T11:08:23.412Z,22.03
2019-05-21T11:10:43.032Z,22.27
2019-05-21T11:13:12.275Z,23.80
2019-05-21T11:15:42.070Z,22.37
2019-05-21T11:18:31.687Z,24.40
2019-05-21T11:21:00.505Z,23.90
2019-05-21T11:23:30.886Z,21.73
2019-05-21T11:25:59.322Z,22.90
2019-05-21T11:28:28.000Z,25.00
2019-05-21T11:30:56.593Z,26.43
2019-05-21T11:33:25.858Z,25.50
2019-05-21T11:35:54.794Z,28.47
2019-05-21T11:38:39.073Z,25.90
2019-05-21T11:40:56.070Z,25.43
2019-05-21T11:43:25.465Z,24.07
2019-05-21T11:45:54.273Z,22.40
2019-05-21T11:48:23.662Z,22.50
2019-05-21T11:50:55.333Z,21.60
2019-05-21T11:53:24.927Z,26.87
2019-05-21T11:55:53.923Z,26.73
2019-05-21T11:58:24.359Z,22.43
2019-05-21T12:00:53.886Z,26.83
2019-05-21T12:03:41.798Z,25.00
2019-05-21T12:06:21.033Z,22.43
2019-05-21T12:09:08.939Z,21.13
2019-05-21T12:11:38.009Z,22.57
2019-05-21T12:14:06.790Z,20.40
2019-05-21T12:16:56.260Z,23.97
2019-05-21T12:19:24.814Z,24.47
2019-05-21T12:21:54.349Z,23.23
2019-05-21T12:24:27.579Z,28.90
2019-05-21T12:26:56.136Z,17.97
2019-05-21T12:29:25.710Z,24.47
2019-05-21T12:31:54.702Z,23.90
2019-05-21T12:34:24.037Z,28.20
2019-05-21T12:36:53.215Z,23.70
2019-05-21T12:39:23.556Z,22.57
2019-05-21T12:41:53.449Z,26.90
2019-05-21T12:44:24.675Z,24.50
2019-05-21T12:46:54.065Z,24.67
2019-05-21T12:49:24.017Z,26.10
2019-05-21T12:51:53.391Z,25.00
2019-05-21T12:54:23.740Z,33.00
2019-05-21T12:56:53.156Z,22.83
2019-05-21T12:59:22.860Z,29.30
2019-05-21T13:01:52.192Z,27.70
2019-05-21T13:04:22.297Z,23.83
2019-05-21T13:06:52.110Z,30.80
2019-05-21T13:09:32.485Z,28.30
2019-05-21T13:14:52.286Z,26.40
2019-05-21T13:17:23.279Z,30.07
2019-05-21T13:19:53.258Z,30.30
2019-05-21T13:22:23.541Z,32.47
2019-05-21T13:24:52.608Z,30.13
2019-05-21T13:27:22.114Z,33.20
2019-05-21T13:29:51.740Z,32.00
2019-05-21T13:32:43.799Z,35.07
2019-05-21T13:35:11.735Z,31.77
2019-05-21T13:37:59.528Z,37.77
2019-05-21T13:40:28.109Z,36.37
2019-05-21T13:42:56.558Z,33.43
2019-05-21T13:45:25.063Z,32.33
2019-05-21T13:47:53.705Z,36.20
2019-05-21T13:50:22.212Z,36.43
2019-05-21T13:53:12.032Z,37.53
2019-05-21T13:55:42.009Z,36.77
2019-05-21T13:58:11.170Z,35.57
2019-05-21T14:00:44.547Z,39.30
2019-05-21T14:03:13.467Z,37.53
2019-05-21T14:06:01.321Z,33.50
2019-05-21T14:08:29.834Z,39.57
2019-05-21T14:10:58.320Z,36.43
2019-05-21T14:13:26.871Z,36.77
2019-05-21T14:15:55.537Z,35.40
2019-05-21T14:18:25.175Z,42.10
2019-05-21T14:20:54.559Z,40.37
2019-05-21T14:23:24.492Z,40.50
2019-05-21T14:25:54.015Z,41.23
2019-05-21T14:28:22.842Z,33.73
2019-05-21T14:30:51.911Z,37.73
2019-05-21T14:33:41.864Z,39.47
2019-05-21T14:36:11.204Z,36.57
2019-05-21T14:38:40.277Z,36.37
2019-05-21T14:41:28.077Z,37.53
2019-05-21T14:43:56.579Z,39.30
2019-05-21T14:46:25.540Z,39.73
2019-05-21T14:49:16.143Z,35.20
2019-05-21T14:51:46.424Z,37.13
2019-05-21T14:54:26.176Z,35.73
2019-05-21T14:56:48.198Z,36.30
2019-05-21T14:59:37.712Z,28.90
2019-05-21T15:02:06.157Z,29.07
2019-05-21T15:04:41.186Z,29.57
2019-05-21T15:07:19.106Z,30.73
2019-05-21T15:09:53.604Z,28.47
2019-05-21T15:12:22.896Z,26.27
2019-05-21T15:14:52.809Z,21.83
2019-05-21T15:17:23.625Z,24.10
2019-05-21T15:19:56.637Z,23.70
2019-05-21T15:22:25.336Z,24.40
2019-05-21T15:24:54.450Z,22.43
2019-05-21T15:27:23.889Z,23.00
2019-05-21T15:30:11.884Z,23.83
2019-05-21T15:32:41.717Z,22.47
2019-05-21T15:35:12.155Z,24.47
2019-05-21T15:37:45.000Z,21.37
2019-05-21T15:40:12.828Z,22.20
2019-05-21T15:43:00.760Z,23.27
2019-05-21T15:45:29.275Z,20.83
2019-05-21T15:47:57.775Z,22.77
2019-05-21T15:50:27.590Z,21.20
2019-05-21T15:52:56.143Z,20.93
2019-05-21T15:55:26.690Z,22.20
2019-05-21T15:57:55.384Z,21.47
2019-05-21T16:00:27.078Z,24.40
2019-05-21T16:02:56.352Z,21.50
2019-05-21T16:05:25.267Z,24.50
2019-05-21T16:10:47.007Z,23.47
2019-05-21T16:13:20.472Z,22.97
2019-05-21T16:15:52.379Z,25.63
2019-05-21T16:18:27.248Z,24.30
2019-05-21T16:20:55.991Z,23.70
2019-05-21T16:23:25.008Z,20.90
2019-05-21T16:25:54.005Z,23.97
2019-05-21T16:28:23.148Z,27.20
2019-05-21T16:30:53.882Z,24.30
2019-05-21T16:33:23.723Z,21.33
2019-05-21T16:35:52.554Z,25.30
2019-05-21T16:38:25.327Z,22.90
2019-05-21T16:40:54.483Z,21.27
2019-05-21T16:43:23.463Z,25.83
2019-05-21T16:45:55.370Z,23.10
2019-05-21T16:48:24.499Z,23.43
2019-05-21T16:50:55.582Z,22.97
2019-05-21T16:53:24.589Z,23.60
2019-05-21T16:55:53.556Z,25.80
2019-05-21T16:58:23.359Z,26.27
2019-05-21T17:04:00.165Z,28.03
2019-05-21T17:06:28.155Z,25.17
2019-05-21T17:08:56.829Z,25.70
2019-05-21T17:11:25.394Z,25.70
2019-05-21T17:13:54.186Z,27.57
2019-05-21T17:16:24.255Z,29.30
2019-05-21T17:18:53.701Z,24.20
2019-05-21T17:21:22.941Z,27.47
2019-05-21T17:23:52.840Z,27.27
2019-05-21T17:26:22.775Z,26.83
2019-05-21T17:28:51.782Z,29.27
2019-05-21T17:31:21.145Z,31.47
2019-05-21T17:33:51.023Z,27.47
2019-05-21T17:36:22.725Z,31.47
2019-05-21T17:38:51.457Z,28.27
2019-05-21T17:41:21.056Z,29.67
2019-05-21T17:43:54.311Z,29.80
2019-05-21T17:46:23.444Z,28.57
2019-05-21T17:48:52.883Z,30.27
2019-05-21T17:51:27.357Z,34.60
2019-05-21T17:53:57.864Z,30.87
2019-05-21T17:56:29.120Z,34.83
2019-05-21T17:58:57.779Z,28.53
2019-05-21T18:01:26.372Z,29.80
2019-05-21T18:03:57.727Z,32.20
2019-05-21T18:06:26.682Z,33.80
2019-05-21T18:09:04.178Z,34.77
2019-05-21T18:11:31.938Z,36.13
2019-05-21T18:14:00.403Z,34.80
2019-05-21T18:16:29.196Z,33.90
2019-05-21T18:18:58.162Z,35.07
2019-05-21T18:21:48.154Z,37.10
2019-05-21T18:24:21.887Z,34.53
2019-05-21T18:26:59.103Z,36.83
2019-05-21T18:29:27.289Z,36.20
2019-05-21T18:32:01.709Z,35.57
2019-05-21T18:34:32.333Z,37.93
2019-05-21T18:37:01.913Z,40.50
2019-05-21T18:39:31.008Z,49.20
2019-05-21T18:42:00.835Z,51.50
2019-05-21T18:44:29.956Z,51.43
2019-05-21T18:46:58.380Z,54.57
2019-05-21T18:49:27.784Z,57.87
2019-05-21T18:51:57.115Z,59.83
2019-05-21T18:54:27.391Z,61.37
2019-05-21T18:59:52.926Z,61.40
2019-05-21T19:02:28.355Z,59.03
2019-05-21T19:04:58.145Z,51.20
2019-05-21T19:07:27.190Z,54.50
2019-05-21T19:12:52.590Z,42.37
2019-05-21T19:15:23.515Z,35.47
2019-05-21T19:17:54.616Z,38.13
2019-05-21T19:20:23.856Z,37.80
2019-05-21T19:22:54.592Z,38.70
2019-05-21T19:25:23.880Z,41.63
2019-05-21T19:27:53.648Z,39.60
2019-05-21T19:30:23.636Z,36.37
2019-05-21T19:32:53.404Z,43.20
2019-05-21T19:35:23.628Z,39.57
2019-05-21T19:37:57.505Z,34.47
2019-05-21T19:40:48.932Z,35.13
2019-05-21T19:43:19.442Z,39.77
2019-05-21T19:45:51.001Z,35.90
2019-05-21T19:48:21.846Z,35.13
2019-05-21T19:50:50.936Z,37.90
2019-05-21T19:53:19.794Z,43.20
2019-05-21T19:56:07.897Z,42.03
2019-05-21T19:58:36.423Z,38.73
2019-05-21T20:01:06.202Z,40.40
2019-05-21T20:03:34.717Z,45.00
2019-05-21T20:06:03.302Z,48.47
2019-05-21T20:08:32.021Z,44.83
2019-05-21T20:11:00.585Z,41.47
2019-05-21T20:13:32.747Z,48.90
2019-05-21T20:16:01.219Z,41.13
2019-05-21T20:18:29.717Z,44.13
2019-05-21T20:20:59.776Z,50.40
2019-05-21T20:23:28.576Z,50.73
2019-05-21T20:26:00.659Z,55.03
2019-05-21T20:28:30.705Z,53.77
2019-05-21T20:30:59.588Z,57.93
2019-05-21T20:33:28.176Z,52.17
2019-05-21T20:35:57.713Z,55.73
2019-05-21T20:38:28.328Z,50.80
2019-05-21T20:41:17.714Z,49.17
2019-05-21T20:43:58.155Z,45.63
2019-05-21T20:46:17.443Z,50.70
2019-05-21T20:48:48.222Z,51.97
2019-05-21T20:51:25.094Z,47.33
2019-05-21T20:53:53.777Z,44.97
2019-05-21T20:56:22.410Z,48.50
2019-05-21T20:58:51.686Z,48.30
2019-05-21T21:01:20.483Z,49.57
2019-05-21T21:04:10.059Z,50.03
2019-05-21T21:06:42.943Z,46.37
2019-05-21T21:09:16.451Z,49.70
2019-05-21T21:11:48.638Z,43.03
2019-05-21T21:14:24.148Z,46.00
2019-05-21T21:16:53.199Z,44.07
2019-05-21T21:19:23.539Z,46.07
2019-05-21T21:21:54.402Z,43.80
2019-05-21T21:24:23.733Z,46.87
2019-05-21T21:27:04.722Z,41.13
2019-05-21T21:29:34.790Z,40.67
2019-05-21T21:32:03.249Z,41.97
2019-05-21T21:34:31.879Z,40.57
2019-05-21T21:37:01.921Z,40.57
2019-05-21T21:39:30.576Z,37.17
2019-05-21T21:42:01.192Z,44.53
2019-05-21T21:44:34.120Z,47.27
2019-05-21T21:47:01.218Z,50.83
2019-05-21T21:49:32.650Z,51.70
2019-05-21T21:52:01.278Z,53.40
2019-05-21T21:54:31.162Z,58.77
2019-05-21T21:57:26.704Z,67.60
2019-05-21T21:59:56.696Z,70.77
2019-05-21T22:02:49.190Z,61.23
2019-05-21T22:05:20.737Z,68.87
2019-05-21T22:07:52.824Z,70.47
2019-05-21T22:10:22.647Z,73.73
2019-05-21T22:12:51.998Z,74.60
2019-05-21T22:15:21.514Z,75.30
2019-05-21T22:17:56.414Z,72.53
2019-05-21T22:20:27.823Z,63.43
2019-05-21T22:22:57.450Z,65.97
2019-05-21T22:25:28.533Z,72.10
2019-05-21T22:27:57.647Z,69.90
2019-05-21T22:30:49.609Z,71.33
2019-05-21T22:33:30.053Z,61.50
2019-05-21T22:35:58.570Z,62.17
2019-05-21T22:38:32.343Z,72.80
2019-05-21T22:41:00.258Z,74.20
2019-05-21T22:43:30.416Z,66.50
2019-05-21T22:46:00.404Z,66.63
2019-05-21T22:48:29.268Z,64.67
2019-05-21T22:50:58.631Z,64.23
2019-05-21T22:53:29.401Z,61.47
2019-05-21T22:55:59.731Z,68.07
2019-05-21T22:58:29.659Z,65.17
2019-05-21T23:01:00.263Z,67.17
2019-05-21T23:03:28.855Z,74.37
2019-05-21T23:05:59.829Z,70.57
2019-05-21T23:08:29.974Z,69.23
2019-05-21T23:10:59.111Z,73.80
2019-05-21T23:13:31.057Z,75.97
2019-05-21T23:15:59.755Z,74.20
2019-05-21T23:18:29.193Z,69.40
2019-05-21T23:21:19.386Z,68.70
2019-05-21T23:26:34.840Z,70.97
2019-05-21T23:29:03.985Z,68.20
2019-05-21T23:31:32.515Z,69.63
2019-05-21T23:34:23.145Z,74.93
2019-05-21T23:36:53.035Z,78.20
2019-05-21T23:39:24.010Z,77.93
2019-05-21T23:41:53.261Z,70.33
2019-05-21T23:44:23.735Z,79.60
2019-05-21T23:46:53.198Z,82.00
2019-05-21T23:49:22.228Z,64.87
2019-05-21T23:51:53.110Z,78.43
2019-05-21T23:54:22.482Z,75.10
2019-05-21T23:57:13.139Z,67.90
2019-05-21T23:59:42.243Z,73.93
